createdAt,value
2023-05-09T00:00:03.192Z,95567.94
2023-05-09T00:02:57.202Z,95585.13
2023-05-09T00:05:26.836Z,95572.44
2023-05-09T00:07:55.950Z,95577.81
2023-05-09T00:10:24.864Z,95579.56
2023-05-09T00:12:53.119Z,95571.09
2023-05-09T00:15:39.759Z,95586.69
2023-05-09T00:18:27.423Z,95577.34
2023-05-09T00:21:14.841Z,95575.69
2023-05-09T00:23:43.456Z,95582.25
2023-05-09T00:26:11.680Z,95563.88
2023-05-09T00:28:43.972Z,95580.41
2023-05-09T00:31:12.415Z,95585.91
2023-05-09T00:33:41.005Z,95586.97
2023-05-09T00:36:09.356Z,95594.56
2023-05-09T00:38:38.737Z,95588.41
2023-05-09T00:41:06.759Z,95588.88
2023-05-09T00:43:35.316Z,95583.22
2023-05-09T00:46:04.955Z,95577.63
2023-05-09T00:48:34.315Z,95587.72
2023-05-09T00:51:02.859Z,95590.69
2023-05-09T00:53:33.040Z,95583.50
2023-05-09T00:56:01.836Z,95612.13
2023-05-09T00:58:31.201Z,95591.53
2023-05-09T01:01:02.214Z,95591.47
2023-05-09T01:03:33.021Z,95590.88
2023-05-09T01:06:26.030Z,95579.63
2023-05-09T01:09:04.040Z,95599.91
2023-05-09T01:11:40.789Z,95589.81
2023-05-09T01:14:27.871Z,95588.47
2023-05-09T01:16:59.488Z,95594.91
2023-05-09T01:19:54.485Z,95585.03
2023-05-09T01:22:32.393Z,95593.13
2023-05-09T01:25:21.659Z,95585.69
2023-05-09T01:28:06.273Z,95591.53
2023-05-09T01:30:38.456Z,95586.28
2023-05-09T01:33:08.902Z,95595.47
2023-05-09T01:35:41.334Z,95586.97
2023-05-09T01:38:14.518Z,95598.63
2023-05-09T01:40:49.006Z,95602.16
2023-05-09T01:43:21.318Z,95598.38
2023-05-09T01:45:53.992Z,95585.22
2023-05-09T01:48:26.923Z,95591.44
2023-05-09T01:50:58.025Z,95598.56
2023-05-09T01:53:28.644Z,95582.59
2023-05-09T01:55:59.683Z,95600.97
2023-05-09T01:59:05.082Z,95595.31
2023-05-09T02:01:35.488Z,95584.16
2023-05-09T02:04:06.106Z,95615.69
2023-05-09T02:06:38.339Z,95608.56
2023-05-09T02:09:06.818Z,95609.50
2023-05-09T02:11:36.304Z,95622.13
2023-05-09T02:14:05.158Z,95607.13
2023-05-09T02:16:34.173Z,95603.28
2023-05-09T02:19:04.360Z,95610.09
2023-05-09T02:21:33.289Z,95618.09
2023-05-09T02:24:01.790Z,95608.22
2023-05-09T02:26:31.275Z,95620.50
2023-05-09T02:29:02.824Z,95623.41
2023-05-09T02:31:35.727Z,95624.00
2023-05-09T02:34:06.378Z,95620.91
2023-05-09T02:36:38.868Z,95629.75
2023-05-09T02:39:08.895Z,95626.22
2023-05-09T02:41:37.928Z,95635.44
2023-05-09T02:44:09.779Z,95623.50
2023-05-09T02:46:56.401Z,95641.50
2023-05-09T02:49:46.249Z,95636.13
2023-05-09T02:52:16.405Z,95643.25
2023-05-09T02:54:44.656Z,95637.25
2023-05-09T02:57:13.322Z,95642.75
2023-05-09T02:59:41.888Z,95637.19
2023-05-09T03:02:11.339Z,95649.97
2023-05-09T03:04:39.881Z,95632.34
2023-05-09T03:07:09.826Z,95647.16
2023-05-09T03:09:39.271Z,95657.13
2023-05-09T03:12:28.557Z,95656.25
2023-05-09T03:14:58.409Z,95656.97
2023-05-09T03:17:45.227Z,95648.31
2023-05-09T03:20:15.595Z,95654.28
2023-05-09T03:22:44.000Z,95651.22
2023-05-09T03:25:14.364Z,95659.50
2023-05-09T03:27:43.125Z,95664.88
2023-05-09T03:30:16.530Z,95658.31
2023-05-09T03:32:47.103Z,95664.69
2023-05-09T03:35:16.027Z,95662.72
2023-05-09T03:37:44.995Z,95662.75
2023-05-09T03:40:14.549Z,95666.91
2023-05-09T03:42:51.317Z,95679.28
2023-05-09T03:45:38.699Z,95663.59
2023-05-09T03:48:10.310Z,95664.75
2023-05-09T03:50:46.119Z,95668.09
2023-05-09T03:53:16.575Z,95671.38
2023-05-09T03:55:49.686Z,95667.72
2023-05-09T03:58:19.797Z,95674.91
2023-05-09T04:01:07.360Z,95674.25
2023-05-09T04:03:38.140Z,95677.75
2023-05-09T04:06:08.534Z,95666.41
2023-05-09T04:08:41.821Z,95670.81
2023-05-09T04:11:11.401Z,95678.13
2023-05-09T04:13:49.174Z,95673.16
2023-05-09T04:16:31.673Z,95673.66
2023-05-09T04:19:00.733Z,95673.31
2023-05-09T04:21:32.942Z,95681.53
2023-05-09T04:24:04.443Z,95673.00
2023-05-09T04:26:39.363Z,95666.16
2023-05-09T04:29:12.707Z,95666.22
2023-05-09T04:31:42.186Z,95673.09
2023-05-09T04:34:14.712Z,95674.44
2023-05-09T04:36:43.645Z,95675.56
2023-05-09T04:39:13.257Z,95681.91
2023-05-09T04:41:50.226Z,95677.34
2023-05-09T04:44:18.943Z,95691.25
2023-05-09T04:46:46.895Z,95679.78
2023-05-09T04:49:15.153Z,95686.66
2023-05-09T04:51:43.352Z,95697.25
2023-05-09T04:54:12.029Z,95689.47
2023-05-09T04:56:41.906Z,95687.28
2023-05-09T04:59:10.147Z,95691.19
2023-05-09T05:01:38.015Z,95695.09
2023-05-09T05:04:06.509Z,95688.78
2023-05-09T05:06:34.585Z,95692.38
2023-05-09T05:09:03.234Z,95682.78
2023-05-09T05:11:31.691Z,95701.59
2023-05-09T05:14:03.188Z,95672.56
2023-05-09T05:16:31.855Z,95690.16
2023-05-09T05:19:00.700Z,95704.09
2023-05-09T05:21:29.490Z,95698.38
2023-05-09T05:23:57.676Z,95713.97
2023-05-09T05:26:26.011Z,95704.50
2023-05-09T05:28:55.869Z,95701.84
2023-05-09T05:31:24.218Z,95697.81
2023-05-09T05:33:52.472Z,95696.44
2023-05-09T05:36:22.081Z,95678.50
2023-05-09T05:38:52.061Z,95684.19
2023-05-09T05:41:20.101Z,95683.47
2023-05-09T05:43:48.578Z,95689.88
2023-05-09T05:46:19.765Z,95696.44
2023-05-09T05:48:49.439Z,95692.41
2023-05-09T05:51:17.368Z,95702.53
2023-05-09T05:53:46.194Z,95697.78
2023-05-09T05:56:14.044Z,95711.81
2023-05-09T05:58:42.512Z,95701.41
2023-05-09T06:01:30.887Z,95697.56
2023-05-09T06:03:59.791Z,95701.63
2023-05-09T06:06:31.412Z,95702.03
2023-05-09T06:08:59.811Z,95706.38
2023-05-09T06:11:28.166Z,95693.47
2023-05-09T06:13:56.804Z,95700.66
2023-05-09T06:16:25.586Z,95691.41
2023-05-09T06:18:55.987Z,95690.41
2023-05-09T06:21:42.905Z,95680.00
2023-05-09T06:24:23.460Z,95671.19
2023-05-09T06:26:58.113Z,95656.94
2023-05-09T06:29:26.353Z,95668.38
2023-05-09T06:31:54.298Z,95669.44
2023-05-09T06:34:22.614Z,95672.00
2023-05-09T06:36:50.368Z,95672.50
2023-05-09T06:39:18.776Z,95651.56
2023-05-09T06:41:46.649Z,95647.75
2023-05-09T06:44:23.282Z,95667.69
2023-05-09T06:46:51.412Z,95661.56
2023-05-09T06:49:21.492Z,95664.31
2023-05-09T06:51:49.548Z,95662.94
2023-05-09T06:54:17.798Z,95657.00
2023-05-09T06:56:46.837Z,95649.38
2023-05-09T06:59:16.811Z,95658.69
2023-05-09T07:01:44.683Z,95655.66
2023-05-09T07:04:13.349Z,95658.94
2023-05-09T07:06:41.501Z,95670.44
2023-05-09T07:09:10.317Z,95660.97
2023-05-09T07:11:38.196Z,95652.84
2023-05-09T07:14:06.517Z,95656.75
2023-05-09T07:16:36.618Z,95653.19
2023-05-09T07:19:06.664Z,95643.50
2023-05-09T07:21:34.722Z,95661.03
2023-05-09T07:24:03.872Z,95648.28
2023-05-09T07:26:31.744Z,95638.59
2023-05-09T07:28:59.978Z,95657.50
2023-05-09T07:31:28.057Z,95640.41
2023-05-09T07:33:56.705Z,95646.78
2023-05-09T07:36:25.785Z,95642.72
2023-05-09T07:38:54.806Z,95635.81
2023-05-09T07:41:22.804Z,95645.00
2023-05-09T07:43:51.117Z,95640.66
2023-05-09T07:46:19.139Z,95649.06
2023-05-09T07:48:48.161Z,95637.06
2023-05-09T07:51:16.288Z,95635.50
2023-05-09T07:53:44.532Z,95633.25
2023-05-09T07:56:13.351Z,95627.91
2023-05-09T07:58:42.761Z,95620.03
2023-05-09T08:01:10.561Z,95595.53
2023-05-09T08:03:39.232Z,95609.56
2023-05-09T08:06:08.346Z,95606.25
2023-05-09T08:08:40.087Z,95610.09
2023-05-09T08:11:08.183Z,95589.16
2023-05-09T08:13:37.691Z,95595.25
2023-05-09T08:16:08.352Z,95589.34
2023-05-09T08:18:36.967Z,95604.19
2023-05-09T08:21:06.228Z,95596.78
2023-05-09T08:23:34.611Z,95578.13
2023-05-09T08:26:02.622Z,95570.19
2023-05-09T08:28:31.757Z,95565.34
2023-05-09T08:30:59.847Z,95567.66
2023-05-09T08:33:28.981Z,95556.88
2023-05-09T08:35:56.946Z,95560.69
2023-05-09T08:38:26.350Z,95545.88
2023-05-09T08:40:54.359Z,95550.25
2023-05-09T08:43:24.267Z,95549.16
2023-05-09T08:45:57.853Z,95551.56
2023-05-09T08:48:27.199Z,95531.84
2023-05-09T08:50:56.372Z,95528.22
2023-05-09T08:53:27.135Z,95526.91
2023-05-09T08:55:55.264Z,95526.66
2023-05-09T08:58:26.005Z,95533.81
2023-05-09T09:00:57.920Z,95517.44
2023-05-09T09:03:26.731Z,95533.03
2023-05-09T09:05:56.120Z,95504.19
2023-05-09T09:08:26.552Z,95502.41
2023-05-09T09:10:55.038Z,95529.22
2023-05-09T09:13:25.724Z,95508.22
2023-05-09T09:15:57.414Z,95515.19
2023-05-09T09:18:30.616Z,95493.44
2023-05-09T09:21:10.272Z,95496.19
2023-05-09T09:23:43.452Z,95496.44
2023-05-09T09:26:11.606Z,95478.31
2023-05-09T09:28:44.878Z,95496.13
2023-05-09T09:31:26.007Z,95488.66
2023-05-09T09:34:01.704Z,95488.56
2023-05-09T09:36:37.004Z,95476.25
2023-05-09T09:39:06.649Z,95482.44
2023-05-09T09:41:38.369Z,95482.00
2023-05-09T09:44:11.888Z,95486.31
2023-05-09T09:46:56.220Z,95474.19
2023-05-09T09:49:27.101Z,95486.19
2023-05-09T09:51:59.140Z,95473.88
2023-05-09T09:54:28.374Z,95477.09
2023-05-09T09:56:57.835Z,95458.59
2023-05-09T09:59:28.104Z,95463.59
2023-05-09T10:02:01.893Z,95464.69
2023-05-09T10:04:34.181Z,95463.25
2023-05-09T10:07:05.373Z,95469.91
2023-05-09T10:09:36.839Z,95464.72
2023-05-09T10:12:07.462Z,95457.72
2023-05-09T10:14:37.073Z,95466.53
2023-05-09T10:17:06.012Z,95459.78
2023-05-09T10:19:38.476Z,95453.31
2023-05-09T10:22:11.595Z,95451.59
2023-05-09T10:24:52.080Z,95453.97
2023-05-09T10:27:24.383Z,95443.34
2023-05-09T10:30:05.211Z,95426.94
2023-05-09T10:32:51.097Z,95450.44
2023-05-09T10:35:31.342Z,95462.97
2023-05-09T10:38:02.187Z,95442.16
2023-05-09T10:40:32.721Z,95446.84
2023-05-09T10:43:02.079Z,95435.94
2023-05-09T10:45:32.070Z,95442.81
2023-05-09T10:48:02.146Z,95461.63
2023-05-09T10:50:30.822Z,95462.69
2023-05-09T10:53:15.619Z,95461.38
2023-05-09T10:56:02.201Z,95460.44
2023-05-09T10:58:33.989Z,95447.78
2023-05-09T11:01:04.829Z,95457.59
2023-05-09T11:03:59.194Z,95448.91
2023-05-09T11:06:51.843Z,95460.25
2023-05-09T11:09:34.371Z,95449.34
2023-05-09T11:12:06.253Z,95449.50
2023-05-09T11:14:41.459Z,95447.75
2023-05-09T11:17:24.958Z,95453.19
2023-05-09T11:19:53.038Z,95438.69
2023-05-09T11:22:29.177Z,95435.81
2023-05-09T11:25:15.659Z,95438.00
2023-05-09T11:27:52.397Z,95444.19
2023-05-09T11:30:21.559Z,95457.00
2023-05-09T11:32:58.137Z,95440.81
2023-05-09T11:35:28.265Z,95427.78
2023-05-09T11:38:07.003Z,95441.88
2023-05-09T11:40:35.556Z,95430.13
2023-05-09T11:43:03.901Z,95426.78
2023-05-09T11:45:33.469Z,95420.00
2023-05-09T11:48:03.635Z,95413.22
2023-05-09T11:50:31.979Z,95433.06
2023-05-09T11:53:00.354Z,95427.22
2023-05-09T11:55:33.667Z,95412.03
2023-05-09T11:58:01.900Z,95420.16
2023-05-09T12:00:29.767Z,95421.06
2023-05-09T12:02:59.096Z,95412.44
2023-05-09T12:05:27.385Z,95417.06
2023-05-09T12:07:56.648Z,95420.72
2023-05-09T12:10:26.542Z,95408.81
2023-05-09T12:12:59.207Z,95414.75
2023-05-09T12:15:27.714Z,95411.56
2023-05-09T12:18:05.961Z,95415.78
2023-05-09T12:20:49.766Z,95418.00
2023-05-09T12:23:18.759Z,95415.78
2023-05-09T12:25:54.268Z,95415.19
2023-05-09T12:28:24.140Z,95415.97
2023-05-09T12:30:53.028Z,95418.28
2023-05-09T12:33:21.764Z,95415.63
2023-05-09T12:36:11.794Z,95405.31
2023-05-09T12:38:40.564Z,95411.97
2023-05-09T12:41:30.951Z,95409.00
2023-05-09T12:44:01.473Z,95417.66
2023-05-09T12:46:29.692Z,95407.38
2023-05-09T12:48:57.975Z,95396.28
2023-05-09T12:51:25.876Z,95410.47
2023-05-09T12:53:54.306Z,95411.31
2023-05-09T12:56:25.534Z,95410.50
2023-05-09T12:58:56.189Z,95402.88
2023-05-09T13:01:28.988Z,95405.13
2023-05-09T13:04:07.725Z,95408.34
2023-05-09T13:06:38.225Z,95394.63
2023-05-09T13:09:06.664Z,95392.16
2023-05-09T13:11:36.089Z,95395.16
2023-05-09T13:14:04.469Z,95402.56
2023-05-09T13:16:32.685Z,95394.31
2023-05-09T13:19:03.170Z,95398.56
2023-05-09T13:21:33.645Z,95399.34
2023-05-09T13:24:03.208Z,95389.50
2023-05-09T13:26:31.189Z,95397.50
2023-05-09T13:28:59.575Z,95407.72
2023-05-09T13:31:27.758Z,95403.44
2023-05-09T13:33:56.169Z,95410.50
2023-05-09T13:36:24.348Z,95408.72
2023-05-09T13:38:52.947Z,95412.22
2023-05-09T13:41:22.576Z,95409.09
2023-05-09T13:43:51.269Z,95423.69
2023-05-09T13:46:20.132Z,95420.63
2023-05-09T13:48:48.707Z,95425.88
2023-05-09T13:51:16.687Z,95425.88
2023-05-09T13:53:44.973Z,95433.50
2023-05-09T13:56:12.929Z,95425.91
2023-05-09T13:58:41.290Z,95439.44
2023-05-09T14:01:09.323Z,95439.91
2023-05-09T14:03:37.729Z,95432.53
2023-05-09T14:06:05.787Z,95435.94
2023-05-09T14:08:34.154Z,95437.25
2023-05-09T14:11:02.096Z,95437.50
2023-05-09T14:13:32.233Z,95444.66
2023-05-09T14:16:00.482Z,95445.25
2023-05-09T14:18:28.728Z,95441.44
2023-05-09T14:20:56.861Z,95447.38
2023-05-09T14:23:25.124Z,95451.50
2023-05-09T14:25:53.408Z,95443.84
2023-05-09T14:28:21.603Z,95432.44
2023-05-09T14:30:49.564Z,95427.09
2023-05-09T14:33:18.025Z,95426.06
2023-05-09T14:35:47.810Z,95418.94
2023-05-09T14:38:16.444Z,95423.38
2023-05-09T14:40:44.848Z,95427.22
2023-05-09T14:43:13.075Z,95421.19
2023-05-09T14:45:41.199Z,95419.97
2023-05-09T14:48:09.421Z,95415.66
2023-05-09T14:50:37.346Z,95407.63
2023-05-09T14:53:05.870Z,95402.09
2023-05-09T14:55:33.833Z,95415.44
2023-05-09T14:58:02.858Z,95420.25
2023-05-09T15:00:31.158Z,95418.31
2023-05-09T15:03:01.315Z,95420.13
2023-05-09T15:05:29.228Z,95419.41
2023-05-09T15:07:57.511Z,95419.00
2023-05-09T15:10:26.814Z,95428.97
2023-05-09T15:12:55.578Z,95424.47
2023-05-09T15:15:24.453Z,95429.16
2023-05-09T15:17:53.836Z,95427.91
2023-05-09T15:20:21.838Z,95429.75
2023-05-09T15:22:51.077Z,95447.41
2023-05-09T15:25:20.653Z,95456.97
2023-05-09T15:27:50.905Z,95460.09
2023-05-09T15:30:19.005Z,95458.31
2023-05-09T15:32:47.775Z,95469.63
2023-05-09T15:35:16.333Z,95472.16
2023-05-09T15:37:45.298Z,95476.78
2023-05-09T15:40:14.077Z,95477.84
2023-05-09T15:42:43.033Z,95481.97
2023-05-09T15:45:11.302Z,95481.25
2023-05-09T15:47:40.037Z,95480.47
2023-05-09T15:50:08.706Z,95481.00
2023-05-09T15:52:37.545Z,95482.06
2023-05-09T15:55:07.157Z,95491.50
2023-05-09T15:57:35.634Z,95496.63
2023-05-09T16:00:04.565Z,95501.72
2023-05-09T16:02:42.494Z,95499.19
2023-05-09T16:05:11.182Z,95499.69
2023-05-09T16:07:40.814Z,95507.13
2023-05-09T16:10:09.892Z,95514.56
2023-05-09T16:12:40.386Z,95507.41
2023-05-09T16:15:09.120Z,95520.19
2023-05-09T16:17:37.330Z,95519.41
2023-05-09T16:20:06.410Z,95526.06
2023-05-09T16:22:34.903Z,95525.81
2023-05-09T16:25:02.767Z,95522.47
2023-05-09T16:27:32.009Z,95535.53
2023-05-09T16:30:00.019Z,95537.81
2023-05-09T16:32:28.526Z,95549.03
2023-05-09T16:34:56.466Z,95544.44
2023-05-09T16:37:25.492Z,95547.22
2023-05-09T16:39:54.128Z,95539.06
2023-05-09T16:42:24.131Z,95560.25
2023-05-09T16:44:53.413Z,95560.50
2023-05-09T16:47:21.911Z,95571.50
2023-05-09T16:49:51.762Z,95576.56
2023-05-09T16:52:21.495Z,95585.25
2023-05-09T16:54:51.048Z,95573.25
2023-05-09T16:57:19.258Z,95591.88
2023-05-09T16:59:47.720Z,95594.69
2023-05-09T17:02:15.959Z,95581.94
2023-05-09T17:04:43.843Z,95599.00
2023-05-09T17:07:14.794Z,95592.31
2023-05-09T17:09:43.474Z,95602.31
2023-05-09T17:12:17.692Z,95606.38
2023-05-09T17:14:46.966Z,95602.81
2023-05-09T17:17:17.947Z,95613.00
2023-05-09T17:19:46.059Z,95611.47
2023-05-09T17:22:14.264Z,95615.28
2023-05-09T17:24:42.110Z,95615.03
2023-05-09T17:27:11.734Z,95615.25
2023-05-09T17:29:39.634Z,95616.94
2023-05-09T17:32:08.671Z,95618.72
2023-05-09T17:34:36.527Z,95627.66
2023-05-09T17:37:09.599Z,95624.59
2023-05-09T17:39:39.799Z,95615.41
2023-05-09T17:42:08.850Z,95640.16
2023-05-09T17:44:37.185Z,95641.09
2023-05-09T17:47:05.593Z,95634.50
2023-05-09T17:49:34.876Z,95632.97
2023-05-09T17:52:03.296Z,95646.03
2023-05-09T17:54:31.159Z,95651.09
2023-05-09T17:57:01.994Z,95643.16
2023-05-09T17:59:30.023Z,95649.78
2023-05-09T18:01:59.528Z,95650.03
2023-05-09T18:04:31.893Z,95649.50
2023-05-09T18:07:00.880Z,95647.44
2023-05-09T18:09:29.255Z,95641.81
2023-05-09T18:11:57.896Z,95648.72
2023-05-09T18:14:26.730Z,95661.69
2023-05-09T18:16:56.146Z,95650.47
2023-05-09T18:19:25.912Z,95652.56
2023-05-09T18:21:54.339Z,95655.59
2023-05-09T18:24:23.508Z,95660.91
2023-05-09T18:26:52.717Z,95646.63
2023-05-09T18:29:20.671Z,95655.81
2023-05-09T18:31:49.197Z,95647.78
2023-05-09T18:34:17.187Z,95648.81
2023-05-09T18:36:45.633Z,95638.06
2023-05-09T18:39:14.659Z,95649.09
2023-05-09T18:41:44.322Z,95641.75
2023-05-09T18:44:12.123Z,95652.50
2023-05-09T18:46:41.592Z,95636.47
2023-05-09T18:49:12.442Z,95632.59
2023-05-09T18:51:42.220Z,95648.88
2023-05-09T18:54:10.177Z,95645.66
2023-05-09T18:56:40.121Z,95646.41
2023-05-09T18:59:10.034Z,95639.03
2023-05-09T19:01:39.825Z,95635.69
2023-05-09T19:04:08.650Z,95638.19
2023-05-09T19:06:37.476Z,95636.44
2023-05-09T19:09:05.961Z,95636.94
2023-05-09T19:11:34.309Z,95632.06
2023-05-09T19:14:02.329Z,95639.22
2023-05-09T19:16:30.829Z,95636.88
2023-05-09T19:18:59.741Z,95629.72
2023-05-09T19:21:28.553Z,95623.53
2023-05-09T19:23:57.349Z,95626.38
2023-05-09T19:26:26.076Z,95627.66
2023-05-09T19:28:54.601Z,95623.09
2023-05-09T19:31:22.918Z,95618.06
2023-05-09T19:33:52.309Z,95607.56
2023-05-09T19:36:21.200Z,95610.63
2023-05-09T19:38:50.347Z,95608.63
2023-05-09T19:41:18.779Z,95609.13
2023-05-09T19:43:48.879Z,95612.81
2023-05-09T19:46:22.611Z,95620.69
2023-05-09T19:48:52.217Z,95604.38
2023-05-09T19:51:20.461Z,95613.00
2023-05-09T19:53:48.394Z,95619.66
2023-05-09T19:56:20.200Z,95615.91
2023-05-09T19:58:50.782Z,95613.09
2023-05-09T20:01:21.940Z,95615.22
2023-05-09T20:03:52.957Z,95620.56
2023-05-09T20:06:21.531Z,95622.59
2023-05-09T20:08:51.775Z,95617.25
2023-05-09T20:11:21.203Z,95618.81
2023-05-09T20:13:49.187Z,95628.47
2023-05-09T20:16:17.693Z,95624.91
2023-05-09T20:18:46.119Z,95625.88
2023-05-09T20:21:22.557Z,95615.81
2023-05-09T20:23:50.941Z,95635.06
2023-05-09T20:26:19.334Z,95632.28
2023-05-09T20:28:49.172Z,95635.34
2023-05-09T20:31:18.162Z,95639.19
2023-05-09T20:33:47.271Z,95639.63
2023-05-09T20:36:15.689Z,95629.13
2023-05-09T20:38:43.824Z,95640.44
2023-05-09T20:41:12.755Z,95630.97
2023-05-09T20:43:43.298Z,95633.94
2023-05-09T20:46:12.304Z,95636.75
2023-05-09T20:48:40.214Z,95648.19
2023-05-09T20:51:08.781Z,95628.22
2023-05-09T20:53:37.967Z,95640.72
2023-05-09T20:56:06.266Z,95645.72
2023-05-09T20:58:34.879Z,95641.84
2023-05-09T21:01:05.215Z,95638.06
2023-05-09T21:03:34.445Z,95642.22
2023-05-09T21:06:02.709Z,95638.38
2023-05-09T21:08:30.539Z,95640.19
2023-05-09T21:10:59.476Z,95646.31
2023-05-09T21:13:27.665Z,95641.81
2023-05-09T21:15:56.183Z,95644.34
2023-05-09T21:18:25.695Z,95648.41
2023-05-09T21:20:56.390Z,95646.88
2023-05-09T21:23:24.337Z,95654.81
2023-05-09T21:25:52.481Z,95645.34
2023-05-09T21:28:21.035Z,95648.41
2023-05-09T21:30:53.886Z,95641.28
2023-05-09T21:33:22.067Z,95645.03
2023-05-09T21:35:50.258Z,95636.81
2023-05-09T21:38:18.839Z,95647.34
2023-05-09T21:40:47.128Z,95646.50
2023-05-09T21:43:18.365Z,95637.22
2023-05-09T21:45:47.261Z,95645.25
2023-05-09T21:48:15.398Z,95634.84
2023-05-09T21:50:47.203Z,95639.28
2023-05-09T21:53:15.497Z,95645.69
2023-05-09T21:55:44.112Z,95640.59
2023-05-09T21:58:12.061Z,95644.47
2023-05-09T22:00:40.261Z,95636.25
2023-05-09T22:03:08.286Z,95637.78
2023-05-09T22:05:36.878Z,95638.00
2023-05-09T22:08:05.217Z,95631.25
2023-05-09T22:10:33.366Z,95643.50
2023-05-09T22:13:01.519Z,95650.84
2023-05-09T22:15:29.965Z,95641.34
2023-05-09T22:17:57.900Z,95647.66
2023-05-09T22:20:27.250Z,95649.03
2023-05-09T22:22:55.652Z,95633.72
2023-05-09T22:25:23.918Z,95641.31
2023-05-09T22:27:51.775Z,95659.66
2023-05-09T22:30:20.093Z,95672.59
2023-05-09T22:32:47.921Z,95665.94
2023-05-09T22:35:16.238Z,95670.56
2023-05-09T22:37:44.101Z,95676.84
2023-05-09T22:40:12.766Z,95675.00
2023-05-09T22:42:40.709Z,95670.69
2023-05-09T22:45:09.440Z,95668.03
2023-05-09T22:47:37.658Z,95673.22
2023-05-09T22:50:07.624Z,95677.97
2023-05-09T22:52:35.512Z,95678.50
2023-05-09T22:55:05.201Z,95684.09
2023-05-09T22:57:33.192Z,95688.31
2023-05-09T23:00:01.448Z,95683.69
2023-05-09T23:02:30.684Z,95695.25
2023-05-09T23:04:59.252Z,95691.97
2023-05-09T23:07:27.114Z,95682.91
2023-05-09T23:09:55.508Z,95688.69
2023-05-09T23:12:23.478Z,95690.78
2023-05-09T23:14:51.725Z,95691.41
2023-05-09T23:17:19.690Z,95693.06
2023-05-09T23:19:48.164Z,95680.91
2023-05-09T23:22:16.525Z,95686.38
2023-05-09T23:24:44.734Z,95681.19
2023-05-09T23:27:12.893Z,95675.31
2023-05-09T23:29:41.054Z,95671.22
2023-05-09T23:32:09.628Z,95677.25
2023-05-09T23:34:38.325Z,95666.03
2023-05-09T23:37:06.682Z,95684.59
2023-05-09T23:39:35.215Z,95676.31
2023-05-09T23:42:04.429Z,95664.22
2023-05-09T23:44:32.679Z,95680.66
2023-05-09T23:47:02.138Z,95674.16
2023-05-09T23:49:30.985Z,95672.63
2023-05-09T23:51:58.968Z,95659.72
2023-05-09T23:54:27.439Z,95655.81
2023-05-09T23:56:57.716Z,95656.03
2023-05-09T23:59:26.083Z,95672.06
